sensor_id;sensor_type;location;lat;lon;timestamp;temperature;humidity
2565;DHT22;1292;48.020;7.822;2022-07-29T05:46:26;20.10;99.90
2565;DHT22;1292;48.020;7.822;2022-07-29T05:48:53;20.20;99.90
2565;DHT22;1292;48.020;7.822;2022-07-29T05:51:20;20.30;99.90
2565;DHT22;1292;48.020;7.822;2022-07-29T05:53:47;20.30;99.90
2565;DHT22;1292;48.020;7.822;2022-07-29T05:56:14;20.40;99.90
2565;DHT22;1292;48.020;7.822;2022-07-29T05:58:40;20.40;99.90
2565;DHT22;1292;48.020;7.822;2022-07-29T06:01:07;20.40;99.90
2565;DHT22;1292;48.020;7.822;2022-07-29T06:03:35;20.50;99.90
2565;DHT22;1292;48.020;7.822;2022-07-29T06:06:04;20.60;99.90
2565;DHT22;1292;48.020;7.822;2022-07-29T06:08:31;20.60;99.90
2565;DHT22;1292;48.020;7.822;2022-07-29T06:10:59;20.60;99.90
2565;DHT22;1292;48.020;7.822;2022-07-29T06:13:26;20.70;99.90
2565;DHT22;1292;48.020;7.822;2022-07-29T06:15:52;20.90;99.90
2565;DHT22;1292;48.020;7.822;2022-07-29T06:18:19;21.00;99.90
2565;DHT22;1292;48.020;7.822;2022-07-29T06:20:50;21.10;99.90
2565;DHT22;1292;48.020;7.822;2022-07-29T06:23:17;21.20;99.90
2565;DHT22;1292;48.020;7.822;2022-07-29T06:25:44;21.20;99.90
2565;DHT22;1292;48.020;7.822;2022-07-29T06:28:11;21.30;99.90
2565;DHT22;1292;48.020;7.822;2022-07-29T06:30:38;21.40;99.90
2565;DHT22;1292;48.020;7.822;2022-07-29T06:33:05;21.50;99.90
2565;DHT22;1292;48.020;7.822;2022-07-29T06:35:33;21.50;99.90
2565;DHT22;1292;48.020;7.822;2022-07-29T06:38:02;21.60;99.90
2565;DHT22;1292;48.020;7.822;2022-07-29T06:40:28;21.70;99.90
2565;DHT22;1292;48.020;7.822;2022-07-29T06:43:13;21.80;99.90
2565;DHT22;1292;48.020;7.822;2022-07-29T06:45:40;21.80;99.90
2565;DHT22;1292;48.020;7.822;2022-07-29T06:48:08;22.00;99.90
2565;DHT22;1292;48.020;7.822;2022-07-29T06:50:35;22.10;99.90
2565;DHT22;1292;48.020;7.822;2022-07-29T06:53:03;22.20;99.90
2565;DHT22;1292;48.020;7.822;2022-07-29T06:55:30;22.20;99.90
2565;DHT22;1292;48.020;7.822;2022-07-29T06:57:57;22.30;99.90
2565;DHT22;1292;48.020;7.822;2022-07-29T07:00:24;22.30;99.90
2565;DHT22;1292;48.020;7.822;2022-07-29T07:02:51;22.30;99.90
2565;DHT22;1292;48.020;7.822;2022-07-29T07:05:18;22.40;99.90
2565;DHT22;1292;48.020;7.822;2022-07-29T07:07:45;22.50;99.90
2565;DHT22;1292;48.020;7.822;2022-07-29T07:10:13;22.50;99.90
2565;DHT22;1292;48.020;7.822;2022-07-29T07:12:40;22.60;99.90
2565;DHT22;1292;48.020;7.822;2022-07-29T07:15:08;22.60;99.90
2565;DHT22;1292;48.020;7.822;2022-07-29T07:17:35;22.70;99.90
2565;DHT22;1292;48.020;7.822;2022-07-29T07:20:04;22.80;99.90
2565;DHT22;1292;48.020;7.822;2022-07-29T07:22:31;22.90;99.90
2565;DHT22;1292;48.020;7.822;2022-07-29T07:24:58;23.00;99.90
2565;DHT22;1292;48.020;7.822;2022-07-29T07:27:26;23.20;99.90
2565;DHT22;1292;48.020;7.822;2022-07-29T07:29:53;23.30;99.90
2565;DHT22;1292;48.020;7.822;2022-07-29T07:32:20;23.40;99.90
2565;DHT22;1292;48.020;7.822;2022-07-29T07:34:47;23.40;99.90
2565;DHT22;1292;48.020;7.822;2022-07-29T07:37:14;23.60;99.90
2565;DHT22;1292;48.020;7.822;2022-07-29T07:39:40;23.70;99.90
2565;DHT22;1292;48.020;7.822;2022-07-29T07:42:07;23.70;99.90
2565;DHT22;1292;48.020;7.822;2022-07-29T07:44:38;23.70;99.90
2565;DHT22;1292;48.020;7.822;2022-07-29T07:47:05;23.80;99.90
2565;DHT22;1292;48.020;7.822;2022-07-29T07:49:31;23.90;99.90
2565;DHT22;1292;48.020;7.822;2022-07-29T07:51:58;24.00;99.90
2565;DHT22;1292;48.020;7.822;2022-07-29T07:54:25;24.10;99.90
2565;DHT22;1292;48.020;7.822;2022-07-29T07:56:52;24.10;99.90
2565;DHT22;1292;48.020;7.822;2022-07-29T07:59:19;24.00;99.90
2565;DHT22;1292;48.020;7.822;2022-07-29T08:01:47;24.00;99.90
2565;DHT22;1292;48.020;7.822;2022-07-29T08:04:13;24.00;99.90
2565;DHT22;1292;48.020;7.822;2022-07-29T08:06:40;23.90;99.90
2565;DHT22;1292;48.020;7.822;2022-07-29T08:09:07;23.90;99.90
2565;DHT22;1292;48.020;7.822;2022-07-29T08:11:34;24.00;99.90
2565;DHT22;1292;48.020;7.822;2022-07-29T08:14:01;24.10;99.90
2565;DHT22;1292;48.020;7.822;2022-07-29T08:16:28;24.10;99.90
2565;DHT22;1292;48.020;7.822;2022-07-29T08:18:56;24.10;99.90
2565;DHT22;1292;48.020;7.822;2022-07-29T08:21:23;24.30;99.90
2565;DHT22;1292;48.020;7.822;2022-07-29T08:23:51;24.30;99.90
2565;DHT22;1292;48.020;7.822;2022-07-29T08:26:39;24.30;99.90
2565;DHT22;1292;48.020;7.822;2022-07-29T08:29:06;24.40;99.90
2565;DHT22;1292;48.020;7.822;2022-07-29T08:31:32;24.50;99.90
2565;DHT22;1292;48.020;7.822;2022-07-29T08:34:01;24.60;99.90
2565;DHT22;1292;48.020;7.822;2022-07-29T08:36:28;24.70;99.90
2565;DHT22;1292;48.020;7.822;2022-07-29T08:38:55;24.80;99.90
2565;DHT22;1292;48.020;7.822;2022-07-29T08:41:22;24.90;99.90
2565;DHT22;1292;48.020;7.822;2022-07-29T08:43:49;25.10;99.90
2565;DHT22;1292;48.020;7.822;2022-07-29T08:46:17;25.20;99.90
2565;DHT22;1292;48.020;7.822;2022-07-29T08:48:44;25.20;99.90
2565;DHT22;1292;48.020;7.822;2022-07-29T08:51:15;25.30;99.90
2565;DHT22;1292;48.020;7.822;2022-07-29T08:53:43;25.40;99.90
2565;DHT22;1292;48.020;7.822;2022-07-29T08:56:11;25.40;99.90
2565;DHT22;1292;48.020;7.822;2022-07-29T08:58:39;25.50;99.90
2565;DHT22;1292;48.020;7.822;2022-07-29T09:01:06;25.50;99.90
2565;DHT22;1292;48.020;7.822;2022-07-29T09:03:36;25.30;99.90
2565;DHT22;1292;48.020;7.822;2022-07-29T09:06:03;25.20;99.90
2565;DHT22;1292;48.020;7.822;2022-07-29T09:08:32;25.30;99.90
2565;DHT22;1292;48.020;7.822;2022-07-29T09:11:00;25.40;99.90
2565;DHT22;1292;48.020;7.822;2022-07-29T09:13:28;25.50;99.90
2565;DHT22;1292;48.020;7.822;2022-07-29T09:15:55;25.50;99.90
2565;DHT22;1292;48.020;7.822;2022-07-29T09:18:36;25.50;99.90
2565;DHT22;1292;48.020;7.822;2022-07-29T09:21:05;25.50;99.90
2565;DHT22;1292;48.020;7.822;2022-07-29T09:24:06;25.30;99.90
2565;DHT22;1292;48.020;7.822;2022-07-29T09:26:34;25.30;99.90
2565;DHT22;1292;48.020;7.822;2022-07-29T09:29:08;25.30;99.90
2565;DHT22;1292;48.020;7.822;2022-07-29T09:31:37;25.40;99.90
2565;DHT22;1292;48.020;7.822;2022-07-29T09:34:04;25.50;99.90
2565;DHT22;1292;48.020;7.822;2022-07-29T09:36:39;25.50;99.90
2565;DHT22;1292;48.020;7.822;2022-07-29T09:39:07;25.50;99.90
2565;DHT22;1292;48.020;7.822;2022-07-29T09:41:48;25.50;99.90
2565;DHT22;1292;48.020;7.822;2022-07-29T09:44:15;25.60;99.90
2565;DHT22;1292;48.020;7.822;2022-07-29T09:46:57;25.60;99.90
2565;DHT22;1292;48.020;7.822;2022-07-29T09:49:24;25.40;99.90
2565;DHT22;1292;48.020;7.822;2022-07-29T09:52:03;25.50;99.90
2565;DHT22;1292;48.020;7.822;2022-07-29T09:54:32;25.50;99.90
2565;DHT22;1292;48.020;7.822;2022-07-29T09:57:04;25.50;99.90
2565;DHT22;1292;48.020;7.822;2022-07-29T09:59:32;25.20;99.90
2565;DHT22;1292;48.020;7.822;2022-07-29T10:01:59;25.20;99.90
2565;DHT22;1292;48.020;7.822;2022-07-29T10:04:37;25.20;99.90
2565;DHT22;1292;48.020;7.822;2022-07-29T10:07:05;25.30;99.90
2565;DHT22;1292;48.020;7.822;2022-07-29T10:09:33;25.50;99.90
2565;DHT22;1292;48.020;7.822;2022-07-29T10:12:05;25.60;99.90
2565;DHT22;1292;48.020;7.822;2022-07-29T10:14:32;25.80;99.90
2565;DHT22;1292;48.020;7.822;2022-07-29T10:17:00;25.90;99.90
2565;DHT22;1292;48.020;7.822;2022-07-29T10:19:28;26.00;99.90
2565;DHT22;1292;48.020;7.822;2022-07-29T10:21:57;26.20;99.90
2565;DHT22;1292;48.020;7.822;2022-07-29T10:24:25;26.20;99.90
2565;DHT22;1292;48.020;7.822;2022-07-29T10:26:55;26.20;99.90
2565;DHT22;1292;48.020;7.822;2022-07-29T10:29:22;26.00;99.90
2565;DHT22;1292;48.020;7.822;2022-07-29T10:32:07;26.20;99.90
2565;DHT22;1292;48.020;7.822;2022-07-29T10:34:51;26.40;99.90
2565;DHT22;1292;48.020;7.822;2022-07-29T10:37:31;26.50;99.90
2565;DHT22;1292;48.020;7.822;2022-07-29T10:40:06;26.60;99.90
2565;DHT22;1292;48.020;7.822;2022-07-29T10:42:52;26.70;99.90
2565;DHT22;1292;48.020;7.822;2022-07-29T10:45:21;26.70;99.90
2565;DHT22;1292;48.020;7.822;2022-07-29T10:48:03;26.80;99.90
2565;DHT22;1292;48.020;7.822;2022-07-29T10:50:52;26.90;99.90
2565;DHT22;1292;48.020;7.822;2022-07-29T10:53:19;26.90;99.90
2565;DHT22;1292;48.020;7.822;2022-07-29T10:55:46;26.80;99.90
2565;DHT22;1292;48.020;7.822;2022-07-29T10:58:17;26.90;99.90
2565;DHT22;1292;48.020;7.822;2022-07-29T11:00:44;26.90;99.90
2565;DHT22;1292;48.020;7.822;2022-07-29T11:03:42;27.00;99.90
2565;DHT22;1292;48.020;7.822;2022-07-29T11:06:09;27.00;99.90
2565;DHT22;1292;48.020;7.822;2022-07-29T11:08:36;27.10;99.90
2565;DHT22;1292;48.020;7.822;2022-07-29T11:11:36;27.20;99.90
2565;DHT22;1292;48.020;7.822;2022-07-29T11:14:07;27.30;99.90
2565;DHT22;1292;48.020;7.822;2022-07-29T11:17:00;27.30;99.90
2565;DHT22;1292;48.020;7.822;2022-07-29T11:19:28;27.40;99.90
2565;DHT22;1292;48.020;7.822;2022-07-29T11:21:55;27.40;99.90
2565;DHT22;1292;48.020;7.822;2022-07-29T11:24:24;27.50;99.90
2565;DHT22;1292;48.020;7.822;2022-07-29T11:27:13;27.50;99.90
2565;DHT22;1292;48.020;7.822;2022-07-29T11:29:50;27.40;99.90
2565;DHT22;1292;48.020;7.822;2022-07-29T11:32:18;27.40;99.90
2565;DHT22;1292;48.020;7.822;2022-07-29T11:34:47;27.40;99.90
2565;DHT22;1292;48.020;7.822;2022-07-29T11:37:21;27.40;99.90
2565;DHT22;1292;48.020;7.822;2022-07-29T11:40:08;27.50;99.90
2565;DHT22;1292;48.020;7.822;2022-07-29T11:42:43;27.10;99.90
2565;DHT22;1292;48.020;7.822;2022-07-29T11:45:14;27.10;99.90
2565;DHT22;1292;48.020;7.822;2022-07-29T11:47:48;27.20;99.90
2565;DHT22;1292;48.020;7.822;2022-07-29T11:50:17;27.20;99.90
2565;DHT22;1292;48.020;7.822;2022-07-29T11:52:47;27.30;99.90
2565;DHT22;1292;48.020;7.822;2022-07-29T11:55:16;27.30;99.90
2565;DHT22;1292;48.020;7.822;2022-07-29T11:57:48;27.30;99.90
2565;DHT22;1292;48.020;7.822;2022-07-29T12:00:28;27.30;99.90
2565;DHT22;1292;48.020;7.822;2022-07-29T12:03:00;27.30;99.90
2565;DHT22;1292;48.020;7.822;2022-07-29T12:05:35;27.40;99.90
2565;DHT22;1292;48.020;7.822;2022-07-29T12:08:07;27.30;99.90
2565;DHT22;1292;48.020;7.822;2022-07-29T12:10:34;27.30;99.90
2565;DHT22;1292;48.020;7.822;2022-07-29T12:13:01;27.30;99.90
2565;DHT22;1292;48.020;7.822;2022-07-29T12:15:29;27.20;99.90
2565;DHT22;1292;48.020;7.822;2022-07-29T12:17:56;27.20;99.90
2565;DHT22;1292;48.020;7.822;2022-07-29T12:20:24;27.10;99.90
2565;DHT22;1292;48.020;7.822;2022-07-29T12:22:52;27.00;99.90
2565;DHT22;1292;48.020;7.822;2022-07-29T12:25:21;27.00;99.90
2565;DHT22;1292;48.020;7.822;2022-07-29T12:27:58;26.90;99.90
2565;DHT22;1292;48.020;7.822;2022-07-29T12:30:36;26.90;99.90
2565;DHT22;1292;48.020;7.822;2022-07-29T12:33:11;26.90;99.90
2565;DHT22;1292;48.020;7.822;2022-07-29T12:35:39;26.90;99.90
2565;DHT22;1292;48.020;7.822;2022-07-29T12:38:06;26.80;99.90
2565;DHT22;1292;48.020;7.822;2022-07-29T12:40:33;26.90;99.90
2565;DHT22;1292;48.020;7.822;2022-07-29T12:43:11;27.00;99.90
2565;DHT22;1292;48.020;7.822;2022-07-29T12:45:41;27.00;99.90
2565;DHT22;1292;48.020;7.822;2022-07-29T12:48:08;27.20;99.90
2565;DHT22;1292;48.020;7.822;2022-07-29T12:50:35;27.20;99.90
2565;DHT22;1292;48.020;7.822;2022-07-29T12:53:10;27.30;99.90
2565;DHT22;1292;48.020;7.822;2022-07-29T12:55:38;27.20;99.90
2565;DHT22;1292;48.020;7.822;2022-07-29T12:58:05;27.10;99.90
2565;DHT22;1292;48.020;7.822;2022-07-29T13:00:32;27.00;99.90
2565;DHT22;1292;48.020;7.822;2022-07-29T13:03:00;27.00;99.90
2565;DHT22;1292;48.020;7.822;2022-07-29T13:05:39;26.90;99.90
2565;DHT22;1292;48.020;7.822;2022-07-29T13:08:11;26.90;99.90
2565;DHT22;1292;48.020;7.822;2022-07-29T13:10:38;26.90;99.90
2565;DHT22;1292;48.020;7.822;2022-07-29T13:13:07;27.00;99.90
2565;DHT22;1292;48.020;7.822;2022-07-29T13:15:36;27.00;99.90
2565;DHT22;1292;48.020;7.822;2022-07-29T13:18:05;27.10;99.90
2565;DHT22;1292;48.020;7.822;2022-07-29T13:20:52;27.10;99.90
2565;DHT22;1292;48.020;7.822;2022-07-29T13:23:19;27.10;99.90
2565;DHT22;1292;48.020;7.822;2022-07-29T13:25:45;27.10;99.90
2565;DHT22;1292;48.020;7.822;2022-07-29T13:28:12;27.10;99.90
2565;DHT22;1292;48.020;7.822;2022-07-29T13:30:39;27.10;99.90
2565;DHT22;1292;48.020;7.822;2022-07-29T13:33:08;27.00;99.90
2565;DHT22;1292;48.020;7.822;2022-07-29T13:35:35;27.00;99.90
2565;DHT22;1292;48.020;7.822;2022-07-29T13:38:02;27.10;99.90
2565;DHT22;1292;48.020;7.822;2022-07-29T13:40:28;27.00;99.90
2565;DHT22;1292;48.020;7.822;2022-07-29T13:42:55;26.90;99.90
2565;DHT22;1292;48.020;7.822;2022-07-29T13:45:22;26.80;99.90
2565;DHT22;1292;48.020;7.822;2022-07-29T13:47:50;26.80;99.90
2565;DHT22;1292;48.020;7.822;2022-07-29T13:50:18;26.90;99.90
2565;DHT22;1292;48.020;7.822;2022-07-29T13:52:44;26.90;99.90
2565;DHT22;1292;48.020;7.822;2022-07-29T13:55:13;26.80;99.90
2565;DHT22;1292;48.020;7.822;2022-07-29T13:57:40;26.80;99.90
2565;DHT22;1292;48.020;7.822;2022-07-29T14:00:08;26.80;99.90
2565;DHT22;1292;48.020;7.822;2022-07-29T14:02:35;26.80;99.90
2565;DHT22;1292;48.020;7.822;2022-07-29T14:05:04;26.80;99.90
2565;DHT22;1292;48.020;7.822;2022-07-29T14:07:32;26.90;99.90
2565;DHT22;1292;48.020;7.822;2022-07-29T14:09:59;26.80;99.90
2565;DHT22;1292;48.020;7.822;2022-07-29T14:12:26;26.70;99.90
2565;DHT22;1292;48.020;7.822;2022-07-29T14:14:53;26.60;99.90
2565;DHT22;1292;48.020;7.822;2022-07-29T14:17:20;26.70;99.90
2565;DHT22;1292;48.020;7.822;2022-07-29T14:19:47;26.70;99.90
2565;DHT22;1292;48.020;7.822;2022-07-29T14:22:14;26.70;99.90
2565;DHT22;1292;48.020;7.822;2022-07-29T14:24:42;26.70;99.90
2565;DHT22;1292;48.020;7.822;2022-07-29T14:27:09;26.60;99.90
2565;DHT22;1292;48.020;7.822;2022-07-29T14:29:35;26.50;99.90
2565;DHT22;1292;48.020;7.822;2022-07-29T14:32:02;26.40;99.90
2565;DHT22;1292;48.020;7.822;2022-07-29T14:34:29;26.40;99.90
2565;DHT22;1292;48.020;7.822;2022-07-29T14:36:56;26.50;99.90
2565;DHT22;1292;48.020;7.822;2022-07-29T14:39:23;26.50;99.90
2565;DHT22;1292;48.020;7.822;2022-07-29T14:41:51;26.50;99.90
2565;DHT22;1292;48.020;7.822;2022-07-29T14:44:18;26.60;99.90
2565;DHT22;1292;48.020;7.822;2022-07-29T14:46:45;26.70;99.90
2565;DHT22;1292;48.020;7.822;2022-07-29T14:49:12;26.70;99.90
2565;DHT22;1292;48.020;7.822;2022-07-29T14:51:38;26.80;99.90
2565;DHT22;1292;48.020;7.822;2022-07-29T14:54:05;26.80;99.80
2565;DHT22;1292;48.020;7.822;2022-07-29T14:56:32;26.80;99.60
2565;DHT22;1292;48.020;7.822;2022-07-29T14:59:00;26.90;99.60
2565;DHT22;1292;48.020;7.822;2022-07-29T15:01:27;26.90;98.70
2565;DHT22;1292;48.020;7.822;2022-07-29T15:03:54;26.90;98.80
2565;DHT22;1292;48.020;7.822;2022-07-29T15:06:21;26.90;99.00
2565;DHT22;1292;48.020;7.822;2022-07-29T15:08:48;26.90;98.80
2565;DHT22;1292;48.020;7.822;2022-07-29T15:11:14;26.90;98.50
2565;DHT22;1292;48.020;7.822;2022-07-29T15:13:41;26.80;96.90
2565;DHT22;1292;48.020;7.822;2022-07-29T15:16:09;26.80;97.00
2565;DHT22;1292;48.020;7.822;2022-07-29T15:18:36;26.80;97.30
2565;DHT22;1292;48.020;7.822;2022-07-29T15:21:04;26.80;97.10
2565;DHT22;1292;48.020;7.822;2022-07-29T15:23:32;26.90;96.80
2565;DHT22;1292;48.020;7.822;2022-07-29T15:26:00;26.80;96.50
2565;DHT22;1292;48.020;7.822;2022-07-29T15:28:27;26.70;96.70
2565;DHT22;1292;48.020;7.822;2022-07-29T15:30:54;26.70;96.40
2565;DHT22;1292;48.020;7.822;2022-07-29T15:33:22;26.70;96.60
2565;DHT22;1292;48.020;7.822;2022-07-29T15:35:49;26.80;96.30
2565;DHT22;1292;48.020;7.822;2022-07-29T15:38:16;26.90;96.60
2565;DHT22;1292;48.020;7.822;2022-07-29T15:40:43;26.80;95.90
2565;DHT22;1292;48.020;7.822;2022-07-29T15:43:11;26.90;96.10
2565;DHT22;1292;48.020;7.822;2022-07-29T15:45:39;26.90;95.70
2565;DHT22;1292;48.020;7.822;2022-07-29T15:48:08;27.00;96.30
2565;DHT22;1292;48.020;7.822;2022-07-29T15:50:36;27.00;96.10
2565;DHT22;1292;48.020;7.822;2022-07-29T15:53:03;27.20;96.10
2565;DHT22;1292;48.020;7.822;2022-07-29T15:55:30;27.20;95.90
2565;DHT22;1292;48.020;7.822;2022-07-29T15:57:56;27.10;95.40
2565;DHT22;1292;48.020;7.822;2022-07-29T16:00:23;27.20;95.40
2565;DHT22;1292;48.020;7.822;2022-07-29T16:02:50;27.20;95.60
2565;DHT22;1292;48.020;7.822;2022-07-29T16:05:17;27.20;95.30
2565;DHT22;1292;48.020;7.822;2022-07-29T16:07:45;27.30;95.40
2565;DHT22;1292;48.020;7.822;2022-07-29T16:10:12;27.30;94.80
2565;DHT22;1292;48.020;7.822;2022-07-29T16:12:39;27.30;94.30
2565;DHT22;1292;48.020;7.822;2022-07-29T16:15:06;27.40;94.60
2565;DHT22;1292;48.020;7.822;2022-07-29T16:17:34;27.50;94.40
2565;DHT22;1292;48.020;7.822;2022-07-29T16:20:01;27.60;94.50
2565;DHT22;1292;48.020;7.822;2022-07-29T16:22:27;27.80;94.30
2565;DHT22;1292;48.020;7.822;2022-07-29T16:24:56;27.90;93.40
2565;DHT22;1292;48.020;7.822;2022-07-29T16:27:23;27.90;93.10
2565;DHT22;1292;48.020;7.822;2022-07-29T16:29:52;27.90;92.90
2565;DHT22;1292;48.020;7.822;2022-07-29T16:32:20;28.00;93.10
2565;DHT22;1292;48.020;7.822;2022-07-29T16:34:47;28.20;92.50
2565;DHT22;1292;48.020;7.822;2022-07-29T16:37:14;28.10;92.20
2565;DHT22;1292;48.020;7.822;2022-07-29T16:39:41;28.20;92.60
2565;DHT22;1292;48.020;7.822;2022-07-29T16:42:09;28.20;92.40
2565;DHT22;1292;48.020;7.822;2022-07-29T16:44:36;28.30;91.80
2565;DHT22;1292;48.020;7.822;2022-07-29T16:47:03;28.40;92.10
2565;DHT22;1292;48.020;7.822;2022-07-29T16:49:30;28.40;91.80
2565;DHT22;1292;48.020;7.822;2022-07-29T16:51:57;28.20;91.90
2565;DHT22;1292;48.020;7.822;2022-07-29T16:54:24;28.20;91.50
2565;DHT22;1292;48.020;7.822;2022-07-29T16:56:50;28.20;91.30
2565;DHT22;1292;48.020;7.822;2022-07-29T16:59:18;28.10;91.40
2565;DHT22;1292;48.020;7.822;2022-07-29T17:01:45;28.00;91.50
2565;DHT22;1292;48.020;7.822;2022-07-29T17:04:12;28.00;91.70
2565;DHT22;1292;48.020;7.822;2022-07-29T17:06:40;28.10;91.60
2565;DHT22;1292;48.020;7.822;2022-07-29T17:09:08;28.00;91.40
2565;DHT22;1292;48.020;7.822;2022-07-29T17:11:35;27.90;90.90
2565;DHT22;1292;48.020;7.822;2022-07-29T17:14:02;27.80;91.40
2565;DHT22;1292;48.020;7.822;2022-07-29T17:16:30;27.80;91.40
2565;DHT22;1292;48.020;7.822;2022-07-29T17:18:57;27.80;91.70
2565;DHT22;1292;48.020;7.822;2022-07-29T17:21:24;27.80;91.80
2565;DHT22;1292;48.020;7.822;2022-07-29T17:23:51;27.70;91.30
2565;DHT22;1292;48.020;7.822;2022-07-29T17:26:18;27.60;90.80
2565;DHT22;1292;48.020;7.822;2022-07-29T17:28:46;27.50;91.50
2565;DHT22;1292;48.020;7.822;2022-07-29T17:31:13;27.50;91.50
2565;DHT22;1292;48.020;7.822;2022-07-29T17:33:41;27.50;91.60
2565;DHT22;1292;48.020;7.822;2022-07-29T17:36:08;27.40;91.90
2565;DHT22;1292;48.020;7.822;2022-07-29T17:38:52;27.30;91.60
2565;DHT22;1292;48.020;7.822;2022-07-29T17:41:19;27.20;91.80
2565;DHT22;1292;48.020;7.822;2022-07-29T17:43:47;27.10;91.50
2565;DHT22;1292;48.020;7.822;2022-07-29T17:46:14;27.10;91.20
2565;DHT22;1292;48.020;7.822;2022-07-29T17:48:43;27.10;91.50
2565;DHT22;1292;48.020;7.822;2022-07-29T17:51:11;27.00;91.20
2565;DHT22;1292;48.020;7.822;2022-07-29T17:53:38;26.90;91.50
2565;DHT22;1292;48.020;7.822;2022-07-29T17:56:05;26.90;91.60
2565;DHT22;1292;48.020;7.822;2022-07-29T17:58:32;26.90;91.70
2565;DHT22;1292;48.020;7.822;2022-07-29T18:00:59;26.90;91.70
2565;DHT22;1292;48.020;7.822;2022-07-29T18:03:26;26.80;92.00
2565;DHT22;1292;48.020;7.822;2022-07-29T18:05:54;26.80;91.90
2565;DHT22;1292;48.020;7.822;2022-07-29T18:08:21;26.80;91.80
2565;DHT22;1292;48.020;7.822;2022-07-29T18:10:49;26.80;91.80
2565;DHT22;1292;48.020;7.822;2022-07-29T18:13:16;26.70;91.70
2565;DHT22;1292;48.020;7.822;2022-07-29T18:15:43;26.60;91.40
2565;DHT22;1292;48.020;7.822;2022-07-29T18:18:11;26.60;92.20
2565;DHT22;1292;48.020;7.822;2022-07-29T18:20:38;26.60;92.10
2565;DHT22;1292;48.020;7.822;2022-07-29T18:23:06;26.60;92.10
2565;DHT22;1292;48.020;7.822;2022-07-29T18:25:33;26.60;91.90
2565;DHT22;1292;48.020;7.822;2022-07-29T18:28:00;26.60;92.50
2565;DHT22;1292;48.020;7.822;2022-07-29T18:30:28;26.50;92.50
2565;DHT22;1292;48.020;7.822;2022-07-29T18:32:55;26.50;92.70
2565;DHT22;1292;48.020;7.822;2022-07-29T18:35:22;26.40;92.10
2565;DHT22;1292;48.020;7.822;2022-07-29T18:37:49;26.30;92.40
2565;DHT22;1292;48.020;7.822;2022-07-29T18:40:19;26.30;92.00
2565;DHT22;1292;48.020;7.822;2022-07-29T18:42:48;26.20;92.60
2565;DHT22;1292;48.020;7.822;2022-07-29T18:45:15;26.20;92.60
2565;DHT22;1292;48.020;7.822;2022-07-29T18:47:42;26.10;92.70
2565;DHT22;1292;48.020;7.822;2022-07-29T18:50:09;26.10;92.80
2565;DHT22;1292;48.020;7.822;2022-07-29T18:52:36;26.00;92.50
2565;DHT22;1292;48.020;7.822;2022-07-29T18:55:03;26.00;92.60
2565;DHT22;1292;48.020;7.822;2022-07-29T18:57:31;26.00;92.60
2565;DHT22;1292;48.020;7.822;2022-07-29T18:59:58;25.90;92.80
2565;DHT22;1292;48.020;7.822;2022-07-29T19:02:25;25.90;93.30
2565;DHT22;1292;48.020;7.822;2022-07-29T19:04:52;25.90;93.50
2565;DHT22;1292;48.020;7.822;2022-07-29T19:07:21;25.80;93.60
2565;DHT22;1292;48.020;7.822;2022-07-29T19:09:50;25.80;93.40
2565;DHT22;1292;48.020;7.822;2022-07-29T19:12:17;25.70;93.60
2565;DHT22;1292;48.020;7.822;2022-07-29T19:14:45;25.60;93.60
2565;DHT22;1292;48.020;7.822;2022-07-29T19:17:12;25.60;93.70
2565;DHT22;1292;48.020;7.822;2022-07-29T19:19:39;25.60;94.20
2565;DHT22;1292;48.020;7.822;2022-07-29T19:22:06;25.50;94.10
2565;DHT22;1292;48.020;7.822;2022-07-29T19:24:32;25.50;94.30
2565;DHT22;1292;48.020;7.822;2022-07-29T19:26:59;25.40;94.50
2565;DHT22;1292;48.020;7.822;2022-07-29T19:29:26;25.40;94.30
2565;DHT22;1292;48.020;7.822;2022-07-29T19:31:54;25.30;94.40
2565;DHT22;1292;48.020;7.822;2022-07-29T19:34:21;25.30;94.10
2565;DHT22;1292;48.020;7.822;2022-07-29T19:36:48;25.20;94.50
2565;DHT22;1292;48.020;7.822;2022-07-29T19:39:14;25.20;94.60
2565;DHT22;1292;48.020;7.822;2022-07-29T19:41:41;25.20;94.60
2565;DHT22;1292;48.020;7.822;2022-07-29T19:44:08;25.20;94.80
2565;DHT22;1292;48.020;7.822;2022-07-29T19:46:36;25.10;94.70
2565;DHT22;1292;48.020;7.822;2022-07-29T19:49:05;25.10;95.20
2565;DHT22;1292;48.020;7.822;2022-07-29T19:51:32;25.10;94.80
2565;DHT22;1292;48.020;7.822;2022-07-29T19:53:58;25.10;95.10
2565;DHT22;1292;48.020;7.822;2022-07-29T19:56:25;25.10;95.20
2565;DHT22;1292;48.020;7.822;2022-07-29T19:58:55;25.00;95.50
2565;DHT22;1292;48.020;7.822;2022-07-29T20:01:22;25.00;95.70
2565;DHT22;1292;48.020;7.822;2022-07-29T20:03:49;24.90;96.10
2565;DHT22;1292;48.020;7.822;2022-07-29T20:06:17;24.80;96.40
2565;DHT22;1292;48.020;7.822;2022-07-29T20:08:44;24.70;96.70
2565;DHT22;1292;48.020;7.822;2022-07-29T20:11:11;24.60;96.90
2565;DHT22;1292;48.020;7.822;2022-07-29T20:13:38;24.60;96.40
2565;DHT22;1292;48.020;7.822;2022-07-29T20:16:05;24.60;96.10
2565;DHT22;1292;48.020;7.822;2022-07-29T20:18:33;24.60;95.90
2565;DHT22;1292;48.020;7.822;2022-07-29T20:21:00;24.60;95.80
2565;DHT22;1292;48.020;7.822;2022-07-29T20:23:29;24.60;95.40
2565;DHT22;1292;48.020;7.822;2022-07-29T20:25:56;24.60;95.60
2565;DHT22;1292;48.020;7.822;2022-07-29T20:28:23;24.60;95.90
2565;DHT22;1292;48.020;7.822;2022-07-29T20:30:50;24.50;95.70
2565;DHT22;1292;48.020;7.822;2022-07-29T20:33:16;24.50;95.90
2565;DHT22;1292;48.020;7.822;2022-07-29T20:35:43;24.50;96.30
2565;DHT22;1292;48.020;7.822;2022-07-29T20:38:11;24.40;96.30
2565;DHT22;1292;48.020;7.822;2022-07-29T20:40:40;24.40;96.50
2565;DHT22;1292;48.020;7.822;2022-07-29T20:43:06;24.30;96.70
2565;DHT22;1292;48.020;7.822;2022-07-29T20:45:35;24.30;96.70
2565;DHT22;1292;48.020;7.822;2022-07-29T20:48:02;24.20;97.00
2565;DHT22;1292;48.020;7.822;2022-07-29T20:50:29;24.10;97.20
2565;DHT22;1292;48.020;7.822;2022-07-29T20:52:55;24.10;97.50
2565;DHT22;1292;48.020;7.822;2022-07-29T20:55:22;24.00;97.70
2565;DHT22;1292;48.020;7.822;2022-07-29T20:57:50;23.90;97.60
